»·PEaware :: N1477V KLAX-KSAN

N1477V :: KLAX-KSAN

FLIGHT INFORMATION

Flight Status: Arrived
Operator: Privately registered:
United States
More flights under this callsign
Pilot: Michael S. (27729)
Aircraft: CESSNA 172 SKYHAWK
(C172)
More flights by this aircraft type
Origin: KLAX Los Angeles Intl
United States
Destination: KSAN San Diego Intl-Lindbergh
United States
More flights between these airports :: More routes between these airports
Route: +
File this flight plan on PilotEdge
Remarks:
Altitude:
(Current/Filed)
0ft
Speed:
(Current/Filed)
0kts
Departed: 06-Feb-20 11:36 AM
Arrived: 06-Feb-20 12:39 PM
Distance/Time
Traveled:
95nm/1:02
Distance/Time
To Go:
Arrived

Flight Plot

Page will automatically refresh every two minutes.


Map Options




Map Legend


Flown Route
Filed Route
Departure Airport
Arrival Airport
Navaid (VOR, NDB)
Fix

Horizontal Profiles

Position Reports

Time Latitude Longitude Heading Altitude Ground
Speed
06-Feb-20 11:25 33.933756 -118.394735 89 105ft 0kts
06-Feb-20 11:26 33.933756 -118.394735 89 105ft 0kts
06-Feb-20 11:27 33.933756 -118.394735 89 105ft 0kts
06-Feb-20 11:28 33.933756 -118.394735 89 105ft 0kts
06-Feb-20 11:29 33.933756 -118.394735 89 105ft 0kts
06-Feb-20 11:30 33.934258 -118.394048 58 103ft 8kts
06-Feb-20 11:31 33.935373 -118.390166 83 102ft 18kts
06-Feb-20 11:32 33.935989 -118.384099 83 98ft 16kts
06-Feb-20 11:33 33.936510 -118.382814 354 96ft 0kts
06-Feb-20 11:34 33.936512 -118.382815 355 96ft 0kts
06-Feb-20 11:35 33.936042 -118.398607 267 364ft 95kts
06-Feb-20 11:36 33.934973 -118.434857 267 1076ft 112kts
06-Feb-20 11:37 33.933750 -118.473927 268 1529ft 127kts
06-Feb-20 11:38 33.915025 -118.493702 149 1527ft 112kts
06-Feb-20 11:39 33.888541 -118.475402 147 1772ft 104kts
06-Feb-20 11:40 33.863869 -118.457484 142 2272ft 103kts
06-Feb-20 11:41 33.840063 -118.438186 142 2770ft 103kts
06-Feb-20 11:42 33.814946 -118.417758 143 3017ft 121kts
06-Feb-20 11:43 33.788225 -118.395508 143 3014ft 115kts
06-Feb-20 11:44 33.762271 -118.372906 136 3014ft 114kts
06-Feb-20 11:45 33.739001 -118.346468 134 3016ft 118kts
06-Feb-20 11:46 33.714608 -118.318097 133 3574ft 119kts
06-Feb-20 11:47 33.691824 -118.291569 133 4365ft 111kts
06-Feb-20 11:48 33.670056 -118.266223 132 5158ft 107kts
06-Feb-20 11:49 33.647621 -118.240160 133 5509ft 122kts
06-Feb-20 11:50 33.623556 -118.212371 133 5507ft 118kts
06-Feb-20 11:51 33.599809 -118.184826 133 5508ft 118kts
06-Feb-20 11:52 33.576049 -118.157304 133 5506ft 118kts
06-Feb-20 11:53 33.551313 -118.128632 133 5505ft 127kts
06-Feb-20 11:54 33.525837 -118.099162 133 5503ft 127kts
06-Feb-20 11:55 33.500281 -118.069613 133 5502ft 127kts
06-Feb-20 11:56 33.475334 -118.040734 132 6012ft 116kts
06-Feb-20 11:57 33.453213 -118.015121 132 6801ft 106kts
06-Feb-20 11:58 33.431309 -117.984136 110 6267ft 125kts
06-Feb-20 11:59 33.417000 -117.946171 109 5669ft 125kts
06-Feb-20 12:01 33.403339 -117.910407 109 5536ft 111kts
06-Feb-20 12:02 33.390235 -117.877283 109 5537ft 108kts
06-Feb-20 12:03 33.376878 -117.845228 111 5539ft 106kts
06-Feb-20 12:04 33.366705 -117.812849 95 5540ft 101kts
06-Feb-20 12:05 33.360383 -117.781474 133 5541ft 105kts
06-Feb-20 12:06 33.336867 -117.760652 137 5544ft 107kts
06-Feb-20 12:07 33.309863 -117.742341 154 5544ft 116kts
06-Feb-20 12:08 33.279305 -117.729475 154 5544ft 115kts
06-Feb-20 12:09 33.251691 -117.712199 134 5544ft 110kts
06-Feb-20 12:10 33.227999 -117.688418 133 5307ft 111kts
06-Feb-20 12:11 33.204650 -117.664745 134 4802ft 109kts
06-Feb-20 12:12 33.181620 -117.641268 134 4298ft 108kts
06-Feb-20 12:13 33.158722 -117.617877 135 3794ft 108kts
06-Feb-20 12:14 33.136417 -117.595092 135 3546ft 98kts
06-Feb-20 12:15 33.115999 -117.574166 134 3546ft 95kts
06-Feb-20 12:15 33.099278 -117.556894 133 3545ft 96kts
06-Feb-20 12:17 33.079799 -117.529498 99 3544ft 93kts
06-Feb-20 12:18 33.071254 -117.499757 110 3542ft 96kts
06-Feb-20 12:18 33.059816 -117.476301 119 3540ft 99kts
06-Feb-20 12:20 33.045177 -117.442066 106 3532ft 105kts
06-Feb-20 12:21 33.035099 -117.406522 100 3527ft 116kts
06-Feb-20 12:21 33.030821 -117.374822 95 3524ft 116kts
06-Feb-20 12:22 33.026225 -117.337038 91 3522ft 114kts
06-Feb-20 12:24 33.024069 -117.293175 88 3522ft 113kts
06-Feb-20 12:24 33.025760 -117.262157 79 3522ft 112kts
06-Feb-20 12:25 33.003568 -117.248587 197 3523ft 116kts
06-Feb-20 12:26 32.972440 -117.258605 192 3522ft 115kts
06-Feb-20 12:27 32.941201 -117.266171 193 3523ft 114kts
06-Feb-20 12:28 32.909886 -117.272013 187 3525ft 114kts
06-Feb-20 12:29 32.878217 -117.273656 183 3525ft 113kts
06-Feb-20 12:30 32.847187 -117.273666 183 3527ft 111kts
06-Feb-20 12:31 32.815114 -117.267247 150 2993ft 121kts
06-Feb-20 12:32 32.789073 -117.244141 144 2383ft 113kts
06-Feb-20 12:33 32.768291 -117.217749 111 1777ft 112kts
06-Feb-20 12:34 32.756976 -117.183249 111 1178ft 112kts
06-Feb-20 12:35 32.746294 -117.152948 114 1141ft 92kts
06-Feb-20 12:36 32.726419 -117.144497 222 933ft 79kts
06-Feb-20 12:37 32.727288 -117.164418 289 443ft 55kts
06-Feb-20 12:38 32.731744 -117.182491 286 14ft 38kts
06-Feb-20 12:39 32.733039 -117.184245 24 16ft 0kts
06-Feb-20 12:40 32.732170 -117.179085 78 20ft 13kts
06-Feb-20 12:41 32.732998 -117.178962 187 20ft 0kts

Navigation Log

Ident Type
Flight plan parsing failed, navigation log unavailable